Airfield :
LOGIN :

Register | Disclaimer

   EN    FR    IT 

 










Legend :    VFR   Marginal VFR   IFR   Intensive IFR   Very Intensive IFR
Visi :
Ceiling :
>= 8 km
>= 3000ft
5 to 8 km
1000 to 3000 ft
1500m to 5 km
500 to 1000 ft
800 to 1500m
200 to 500 ft
< 800m
< 200 ft
Symbols :   Thunderstorms  Fog  Heavy snow  Heavy precipitations  Wind > 20 kt
SIGMETs :     Misc.  Thunderstorms  Icing  Turbulence  Mountain Waves  Volcanic Ashes







- Airport Elevation : 364 ft
- IATA code : FRA


EDDF - Frankfurt Int.

CURRENT METAR :
  • 182050Z 21010KT 9999 SCT027 SCT160 OVC230 05/01 Q1018 NOSIG

EXPIRED METARs :
  • 182020Z 21012KT 9999 FEW023 SCT068 OVC230 05/01 Q1018 NOSIG
  • 181950Z 21011KT 9999 FEW018 BKN068 05/01 Q1018 NOSIG
  • 181920Z 22011KT 9999 FEW018 SCT030 BKN065 05/00 Q1018 NOSIG
  • 181850Z 22013KT 9999 -RA FEW025 BKN037 05/M00 Q1018 NOSIG
  • 181820Z 22011KT 9999 FEW027 BKN045 05/M00 Q1018 NOSIG

TAF TAF EDDF
Valid from the 18 at 18:00 until the 20 at 00:00 UTC


181700Z 1818/1924 23010KT 9999 BKN030
TEMPO 1818/1903 25015G25KT 4500 SHRA BKN012 BKN020TCU
PROB30
TEMPO 1910/1916 29015G25KT 4000 SHRA BKN025TCU
No reported NOTAMs for that airfield.



MET'MAP, your aeronautical weather chart ! - Copyright ORBIFLY December 2007 - Disclaimer

ORBIFLY MET'MAP TEAM :

Programming & Development : Alexandra Zaïnal
Concept & Development : Baudouin d'Aumeries
Co-Development & Prog : Marc-Olivier Méhu
Technical & hardware support : Manuel Goepfert

Contact : metmap@orbifly.com




SOURCES & CREDITS :

   NOAA